createdAt,value
2018-02-12T00:01:42.499Z,10.80
2018-02-12T00:04:11.031Z,7.53
2018-02-12T00:06:38.678Z,7.95
2018-02-12T00:09:06.353Z,13.00
2018-02-12T00:11:33.885Z,11.32
2018-02-12T00:14:01.505Z,12.70
2018-02-12T00:16:29.035Z,12.43
2018-02-12T00:18:56.593Z,12.43
2018-02-12T00:21:24.112Z,10.85
2018-02-12T00:23:51.651Z,15.68
2018-02-12T00:26:19.275Z,12.63
2018-02-12T00:28:46.852Z,19.10
2018-02-12T00:31:14.361Z,16.33
2018-02-12T00:33:41.927Z,14.25
2018-02-12T00:36:09.456Z,17.92
2018-02-12T00:38:37.776Z,14.98
2018-02-12T00:41:05.331Z,15.18
2018-02-12T00:43:32.901Z,13.30
2018-02-12T00:46:00.995Z,12.20
2018-02-12T00:48:29.003Z,11.98
2018-02-12T00:50:57.575Z,15.70
2018-02-12T00:53:25.165Z,10.02
2018-02-12T00:55:52.915Z,9.82
2018-02-12T00:58:21.453Z,13.32
2018-02-12T01:00:49.004Z,15.68
2018-02-12T01:03:16.638Z,16.95
2018-02-12T01:05:44.180Z,11.68
2018-02-12T01:08:12.519Z,15.60
2018-02-12T01:10:40.048Z,12.65
2018-02-12T01:13:07.620Z,13.45
2018-02-12T01:15:35.353Z,14.68
2018-02-12T01:18:03.657Z,13.52
2018-02-12T01:20:31.207Z,16.70
2018-02-12T01:22:59.098Z,14.10
2018-02-12T01:25:26.856Z,20.55
2018-02-12T01:27:54.704Z,17.70
2018-02-12T01:30:23.298Z,19.02
2018-02-12T01:32:50.869Z,21.37
2018-02-12T01:35:18.411Z,21.33
2018-02-12T01:37:45.986Z,18.52
2018-02-12T01:40:13.687Z,16.85
2018-02-12T01:42:41.493Z,19.75
2018-02-12T01:45:09.910Z,18.33
2018-02-12T01:47:37.546Z,15.52
2018-02-12T01:50:17.140Z,14.95
2018-02-12T01:52:44.682Z,13.43
2018-02-12T01:55:12.195Z,12.20
2018-02-12T01:57:40.792Z,13.88
2018-02-12T02:00:08.370Z,12.80
2018-02-12T02:02:35.882Z,10.38
2018-02-12T02:05:03.490Z,8.27
2018-02-12T02:07:31.051Z,11.68
2018-02-12T02:09:58.596Z,8.65
2018-02-12T02:12:26.172Z,8.55
2018-02-12T02:14:53.730Z,6.87
2018-02-12T02:17:21.296Z,8.15
2018-02-12T02:19:49.202Z,7.93
2018-02-12T02:22:16.727Z,7.00
2018-02-12T02:24:44.289Z,7.22
2018-02-12T02:27:11.841Z,7.78
2018-02-12T02:29:39.383Z,8.00
2018-02-12T02:32:07.194Z,8.27
2018-02-12T02:34:34.707Z,8.68
2018-02-12T02:37:02.982Z,10.32
2018-02-12T02:39:31.396Z,9.32
2018-02-12T02:41:58.936Z,10.70
2018-02-12T02:44:26.819Z,8.75
2018-02-12T02:46:54.474Z,15.95
2018-02-12T02:49:22.060Z,10.77
2018-02-12T02:51:49.594Z,10.13
2018-02-12T02:54:17.186Z,10.35
2018-02-12T02:56:44.861Z,9.98
2018-02-12T02:59:12.487Z,9.70
2018-02-12T03:01:40.039Z,11.55
2018-02-12T03:04:07.597Z,11.93
2018-02-12T03:06:35.111Z,13.65
2018-02-12T03:09:03.256Z,10.57
2018-02-12T03:11:30.791Z,13.00
2018-02-12T03:13:58.376Z,13.93
2018-02-12T03:16:26.044Z,13.00
2018-02-12T03:18:53.588Z,13.40
2018-02-12T03:21:21.295Z,11.77
2018-02-12T03:23:49.991Z,11.85
2018-02-12T03:26:18.593Z,12.93
2018-02-12T03:28:47.107Z,12.13
2018-02-12T03:31:14.886Z,13.43
2018-02-12T03:33:42.944Z,13.30
2018-02-12T03:36:11.190Z,20.58
2018-02-12T03:38:39.509Z,14.55
2018-02-12T03:41:07.035Z,15.27
2018-02-12T03:43:34.554Z,14.98
2018-02-12T03:46:02.071Z,12.88
2018-02-12T03:48:29.640Z,11.82
2018-02-12T03:50:57.164Z,15.57
2018-02-12T03:53:25.450Z,15.95
2018-02-12T03:55:53.739Z,17.80
2018-02-12T03:58:21.276Z,19.00
2018-02-12T04:00:49.564Z,15.85
2018-02-12T04:03:17.088Z,13.43
2018-02-12T04:05:44.779Z,16.05
2018-02-12T04:08:13.131Z,12.73
2018-02-12T04:10:40.671Z,14.02
2018-02-12T04:13:08.192Z,14.50
2018-02-12T04:15:36.076Z,13.75
2018-02-12T04:18:03.714Z,13.80
2018-02-12T04:20:32.148Z,16.00
2018-02-12T04:22:59.691Z,13.30
2018-02-12T04:25:27.266Z,16.62
2018-02-12T04:27:54.999Z,16.35
2018-02-12T04:30:22.696Z,15.60
2018-02-12T04:32:50.637Z,17.83
2018-02-12T04:35:18.623Z,15.10
2018-02-12T04:37:46.556Z,17.12
2018-02-12T04:40:14.465Z,15.02
2018-02-12T04:42:42.151Z,16.67
2018-02-12T04:45:09.921Z,15.73
2018-02-12T04:47:37.639Z,13.93
2018-02-12T04:50:05.545Z,17.25
2018-02-12T04:52:33.890Z,14.07
2018-02-12T04:55:03.078Z,14.38
2018-02-12T04:57:30.724Z,13.23
2018-02-12T04:59:59.424Z,12.80
2018-02-12T05:02:26.990Z,15.30
2018-02-12T05:04:54.556Z,12.32
2018-02-12T05:07:22.079Z,14.63
2018-02-12T05:09:50.346Z,15.80
2018-02-12T05:12:17.950Z,16.10
2018-02-12T05:14:45.496Z,16.02
2018-02-12T05:17:13.251Z,13.55
2018-02-12T05:19:41.527Z,14.70
2018-02-12T05:22:10.327Z,18.50
2018-02-12T05:24:37.846Z,14.65
2018-02-12T05:27:05.546Z,20.10
2018-02-12T05:29:33.855Z,16.23
2018-02-12T05:32:01.366Z,15.15
2018-02-12T05:34:29.033Z,14.82
2018-02-12T05:36:56.619Z,17.62
2018-02-12T05:39:24.331Z,15.35
2018-02-12T05:41:52.670Z,13.40
2018-02-12T05:44:20.238Z,15.65
2018-02-12T05:46:48.221Z,15.85
2018-02-12T05:49:15.761Z,14.93
2018-02-12T05:51:43.284Z,15.82
2018-02-12T05:54:10.899Z,25.20
2018-02-12T05:56:38.418Z,19.75
2018-02-12T05:59:06.718Z,13.35
2018-02-12T06:01:34.278Z,19.20
2018-02-12T06:04:01.791Z,19.17
2018-02-12T06:06:29.394Z,17.33
2018-02-12T06:08:56.958Z,15.15
2018-02-12T06:11:24.458Z,19.02
2018-02-12T06:13:51.979Z,13.23
2018-02-12T06:16:19.546Z,14.27
2018-02-12T06:18:47.096Z,14.50
2018-02-12T06:21:14.667Z,12.65
2018-02-12T06:23:42.180Z,11.68
2018-02-12T06:26:10.762Z,14.18
2018-02-12T06:28:38.266Z,12.10
2018-02-12T06:31:05.772Z,10.93
2018-02-12T06:33:33.386Z,12.27
2018-02-12T06:36:00.895Z,12.48
2018-02-12T06:38:28.390Z,12.80
2018-02-12T06:40:56.673Z,12.07
2018-02-12T06:43:24.981Z,13.65
2018-02-12T06:45:52.482Z,10.70
2018-02-12T06:48:19.998Z,12.70
2018-02-12T06:50:47.497Z,14.07
2018-02-12T06:53:15.102Z,13.32
2018-02-12T06:55:42.681Z,12.82
2018-02-12T06:58:10.199Z,16.02
2018-02-12T07:00:38.473Z,15.15
2018-02-12T07:03:06.742Z,18.85
2018-02-12T07:05:34.250Z,16.27
2018-02-12T07:08:01.753Z,14.32
2018-02-12T07:10:30.759Z,17.30
2018-02-12T07:12:58.260Z,14.80
2018-02-12T07:15:25.770Z,16.08
2018-02-12T07:17:53.360Z,15.98
2018-02-12T07:20:21.638Z,16.92
2018-02-12T07:22:49.202Z,16.98
2018-02-12T07:25:16.723Z,14.68
2018-02-12T07:27:44.226Z,18.15
2018-02-12T07:30:11.744Z,14.52
2018-02-12T07:32:39.258Z,15.88
2018-02-12T07:35:06.810Z,16.80
2018-02-12T07:37:34.365Z,15.82
2018-02-12T07:40:01.875Z,14.32
2018-02-12T07:42:29.473Z,16.50
2018-02-12T07:44:57.745Z,14.55
2018-02-12T07:47:26.779Z,15.25
2018-02-12T07:49:54.315Z,12.50
2018-02-12T07:52:21.836Z,17.02
2018-02-12T07:54:50.872Z,22.37
2018-02-12T07:57:18.382Z,16.85
2018-02-12T07:59:45.885Z,14.45
2018-02-12T08:02:14.167Z,15.23
2018-02-12T08:04:41.684Z,16.00
2018-02-12T08:07:09.193Z,33.05
2018-02-12T08:09:36.746Z,21.25
2018-02-12T08:12:04.345Z,15.73
2018-02-12T08:14:31.836Z,18.12
2018-02-12T08:16:59.354Z,17.35
2018-02-12T08:19:26.854Z,18.75
2018-02-12T08:21:54.378Z,14.60
2018-02-12T08:24:21.907Z,24.80
2018-02-12T08:26:49.462Z,17.15
2018-02-12T08:29:17.726Z,16.52
2018-02-12T08:31:46.021Z,23.70
2018-02-12T08:34:13.547Z,19.00
2018-02-12T08:36:41.162Z,15.40
2018-02-12T08:39:08.675Z,19.62
2018-02-12T08:41:36.262Z,14.87
2018-02-12T08:44:03.822Z,15.93
2018-02-12T08:46:31.328Z,16.27
2018-02-12T08:48:58.849Z,14.82
2018-02-12T08:51:26.426Z,15.55
2018-02-12T08:53:53.934Z,18.77
2018-02-12T08:56:21.524Z,14.65
2018-02-12T08:58:49.044Z,15.55
2018-02-12T09:01:16.648Z,24.63
2018-02-12T09:03:44.154Z,20.43
2018-02-12T09:06:11.784Z,16.80
2018-02-12T09:08:39.303Z,19.10
2018-02-12T09:11:07.610Z,13.65
2018-02-12T09:13:35.142Z,17.65
2018-02-12T09:16:02.726Z,17.53
2018-02-12T09:18:31.017Z,16.03
2018-02-12T09:20:58.521Z,13.52
2018-02-12T09:23:26.042Z,11.60
2018-02-12T09:25:53.600Z,11.50
2018-02-12T09:28:21.138Z,14.77
2018-02-12T09:30:49.431Z,27.70
2018-02-12T09:33:16.940Z,34.03
2018-02-12T09:35:44.449Z,34.30
2018-02-12T09:38:12.005Z,13.80
2018-02-12T09:40:40.299Z,19.40
2018-02-12T09:43:07.802Z,15.03
2018-02-12T09:45:35.298Z,21.80
2018-02-12T09:48:03.565Z,12.70
2018-02-12T09:50:31.854Z,13.97
2018-02-12T09:52:59.395Z,11.83
2018-02-12T09:55:26.929Z,22.53
2018-02-12T09:57:54.426Z,15.47
2018-02-12T10:00:22.701Z,14.30
2018-02-12T10:02:50.984Z,10.30
2018-02-12T10:05:18.550Z,10.07
2018-02-12T10:07:46.062Z,13.10
2018-02-12T10:10:13.688Z,11.17
2018-02-12T10:12:41.194Z,12.00
2018-02-12T10:15:09.487Z,11.20
2018-02-12T10:17:37.767Z,10.50
2018-02-12T10:20:06.066Z,8.70
2018-02-12T10:22:33.640Z,9.50
2018-02-12T10:25:01.149Z,8.93
2018-02-12T10:27:28.657Z,15.00
2018-02-12T10:29:56.163Z,12.13
2018-02-12T10:32:24.479Z,11.63
2018-02-12T10:34:52.038Z,14.37
2018-02-12T10:37:20.515Z,11.00
2018-02-12T10:39:48.813Z,11.60
2018-02-12T10:42:16.330Z,15.77
2018-02-12T10:44:45.336Z,10.23
2018-02-12T10:47:13.639Z,10.53
2018-02-12T10:49:41.152Z,11.30
2018-02-12T10:52:08.686Z,14.10
2018-02-12T10:54:36.181Z,14.17
2018-02-12T10:57:03.702Z,10.97
2018-02-12T10:59:31.238Z,11.20
2018-02-12T11:01:58.813Z,10.97
2018-02-12T11:04:26.318Z,14.10
2018-02-12T11:06:53.869Z,13.80
2018-02-12T11:09:21.602Z,11.23
2018-02-12T11:11:49.124Z,10.80
2018-02-12T11:14:17.441Z,10.90
2018-02-12T11:16:45.703Z,11.50
2018-02-12T11:19:13.267Z,8.87
2018-02-12T11:21:40.818Z,19.03
2018-02-12T11:24:08.386Z,11.30
2018-02-12T11:26:35.890Z,6.83
2018-02-12T11:29:03.499Z,8.80
2018-02-12T11:31:31.001Z,11.30
2018-02-12T11:33:58.515Z,9.03
2018-02-12T11:36:26.024Z,7.40
2018-02-12T11:38:53.631Z,8.27
2018-02-12T11:41:21.204Z,8.57
2018-02-12T11:43:48.710Z,5.43
2018-02-12T11:46:16.221Z,9.00
2018-02-12T11:48:43.763Z,6.07
2018-02-12T11:51:12.029Z,7.03
2018-02-12T11:53:39.541Z,4.00
2018-02-12T11:56:07.085Z,6.67
2018-02-12T11:58:34.603Z,6.57
2018-02-12T12:01:02.139Z,6.13
2018-02-12T12:03:29.651Z,5.00
2018-02-12T12:05:57.196Z,4.30
2018-02-12T12:08:25.489Z,8.10
2018-02-12T12:10:52.994Z,3.73
2018-02-12T12:13:20.643Z,9.40
2018-02-12T12:15:48.287Z,7.83
2018-02-12T12:18:15.805Z,4.63
2018-02-12T12:20:44.087Z,8.20
2018-02-12T12:23:11.678Z,5.27
2018-02-12T12:25:39.197Z,7.87
2018-02-12T12:28:06.874Z,11.70
2018-02-12T12:30:35.153Z,5.53
2018-02-12T12:33:03.464Z,7.07
2018-02-12T12:35:30.970Z,13.23
2018-02-12T12:37:58.572Z,7.73
2018-02-12T12:40:26.097Z,13.50
2018-02-12T12:42:53.958Z,7.43
2018-02-12T12:45:21.464Z,11.07
2018-02-12T12:47:49.068Z,6.70
2018-02-12T12:50:16.682Z,7.10
2018-02-12T12:52:45.067Z,9.70
2018-02-12T12:55:12.625Z,11.97
2018-02-12T12:57:40.128Z,12.50
2018-02-12T13:00:07.660Z,11.37
2018-02-12T13:02:35.163Z,10.43
2018-02-12T13:05:02.672Z,13.93
2018-02-12T13:07:30.166Z,8.63
2018-02-12T13:09:57.770Z,11.13
2018-02-12T13:12:26.054Z,13.80
2018-02-12T13:14:54.335Z,20.23
2018-02-12T13:17:22.614Z,9.50
2018-02-12T13:19:50.995Z,12.27
2018-02-12T13:22:18.514Z,15.10
2018-02-12T13:24:46.141Z,18.43
2018-02-12T13:27:13.644Z,9.23
2018-02-12T13:29:41.160Z,16.23
2018-02-12T13:32:08.697Z,9.60
2018-02-12T13:34:36.993Z,13.60
2018-02-12T13:37:04.543Z,14.13
2018-02-12T13:39:32.043Z,6.63
2018-02-12T13:41:59.559Z,13.87
2018-02-12T13:44:27.110Z,12.90
2018-02-12T13:46:55.415Z,12.63
2018-02-12T13:49:22.910Z,7.40
2018-02-12T13:51:50.409Z,5.53
2018-02-12T13:54:17.965Z,15.20
2018-02-12T13:56:46.257Z,8.63
2018-02-12T13:59:13.758Z,16.30
2018-02-12T14:01:41.247Z,7.03
2018-02-12T14:04:09.546Z,7.90
2018-02-12T14:06:37.111Z,13.93
2018-02-12T14:09:04.691Z,21.63
2018-02-12T14:11:32.230Z,14.87
2018-02-12T14:13:59.768Z,8.60
2018-02-12T14:16:28.046Z,7.43
2018-02-12T14:18:56.313Z,24.87
2018-02-12T14:21:23.826Z,15.23
2018-02-12T14:23:51.326Z,13.83
2018-02-12T14:26:18.930Z,7.10
2018-02-12T14:28:46.485Z,12.80
2018-02-12T14:31:14.014Z,18.33
2018-02-12T14:33:41.522Z,12.67
2018-02-12T14:36:09.031Z,10.10
2018-02-12T14:38:36.611Z,17.03
2018-02-12T14:41:04.892Z,12.00
2018-02-12T14:43:33.165Z,10.33
2018-02-12T14:46:01.608Z,9.23
2018-02-12T14:48:29.104Z,15.20
2018-02-12T14:50:57.384Z,9.93
2018-02-12T14:53:25.671Z,8.20
2018-02-12T14:55:53.203Z,8.70
2018-02-12T14:58:20.792Z,7.53
2018-02-12T15:00:49.082Z,12.00
2018-02-12T15:03:16.634Z,5.70
2018-02-12T15:05:44.139Z,7.80
2018-02-12T15:08:11.763Z,7.15
2018-02-12T15:10:39.322Z,6.32
2018-02-12T15:13:06.884Z,11.05
2018-02-12T15:15:34.375Z,6.00
2018-02-12T15:18:01.906Z,3.03
2018-02-12T15:20:29.456Z,4.05
2018-02-12T15:22:56.988Z,8.90
2018-02-12T15:25:25.253Z,12.00
2018-02-12T15:27:52.776Z,10.43
2018-02-12T15:30:20.278Z,5.45
2018-02-12T15:32:47.803Z,5.75
2018-02-12T15:35:15.339Z,6.78
2018-02-12T15:37:42.854Z,5.40
2018-02-12T15:40:10.368Z,6.20
2018-02-12T15:42:37.909Z,5.00
2018-02-12T15:45:05.558Z,3.80
2018-02-12T15:47:33.860Z,15.77
2018-02-12T15:50:01.409Z,6.72
2018-02-12T15:52:28.991Z,11.98
2018-02-12T15:54:56.499Z,9.40
2018-02-12T15:57:24.098Z,17.70
2018-02-12T15:59:51.778Z,22.27
2018-02-12T16:02:19.349Z,12.60
2018-02-12T16:04:46.881Z,4.95
2018-02-12T16:07:14.374Z,7.62
2018-02-12T16:09:42.004Z,5.30
2018-02-12T16:12:09.514Z,5.40
2018-02-12T16:14:37.030Z,9.55
2018-02-12T16:17:04.548Z,10.18
2018-02-12T16:19:32.078Z,6.10
2018-02-12T16:21:59.578Z,6.95
2018-02-12T16:24:28.182Z,7.28
2018-02-12T16:26:55.710Z,5.43
2018-02-12T16:29:23.280Z,7.90
2018-02-12T16:31:51.617Z,4.37
2018-02-12T16:34:19.250Z,3.62
2018-02-12T16:36:46.802Z,5.18
2018-02-12T16:39:14.449Z,4.95
2018-02-12T16:41:42.739Z,5.55
2018-02-12T16:44:11.125Z,3.72
2018-02-12T16:46:38.647Z,2.87
2018-02-12T16:49:06.236Z,3.97
2018-02-12T16:51:34.630Z,4.82
2018-02-12T16:54:02.310Z,2.90
2018-02-12T16:56:29.819Z,5.05
2018-02-12T16:58:59.270Z,4.15
2018-02-12T17:01:26.803Z,3.30
2018-02-12T17:03:55.242Z,4.35
2018-02-12T17:06:22.876Z,8.00
2018-02-12T17:08:50.438Z,6.62
2018-02-12T17:11:18.027Z,4.78
2018-02-12T17:13:45.667Z,5.43
2018-02-12T17:16:13.199Z,4.85
2018-02-12T17:18:40.786Z,3.33
2018-02-12T17:21:08.328Z,6.57
2018-02-12T17:23:35.978Z,5.75
2018-02-12T17:26:04.386Z,3.58
2018-02-12T17:28:31.883Z,6.35
2018-02-12T17:30:59.526Z,5.65
2018-02-12T17:33:27.050Z,3.37
2018-02-12T17:35:54.558Z,3.47
2018-02-12T17:38:22.059Z,3.12
2018-02-12T17:40:49.627Z,3.90
2018-02-12T17:43:17.936Z,5.25
2018-02-12T17:45:46.363Z,6.30
2018-02-12T17:48:14.387Z,3.10
2018-02-12T17:50:42.074Z,6.95
2018-02-12T17:53:09.642Z,4.05
2018-02-12T17:55:37.648Z,4.07
2018-02-12T17:58:05.203Z,7.57
2018-02-12T18:00:33.028Z,7.70
2018-02-12T18:03:00.811Z,4.78
2018-02-12T18:05:28.645Z,5.28
2018-02-12T18:07:56.585Z,7.70
2018-02-12T18:10:24.886Z,7.05
2018-02-12T18:12:53.343Z,4.40
2018-02-12T18:15:20.915Z,10.10
2018-02-12T18:17:48.896Z,4.87
2018-02-12T18:20:17.235Z,6.82
2018-02-12T18:22:45.527Z,4.90
2018-02-12T18:25:13.814Z,9.75
2018-02-12T18:27:41.320Z,7.32
2018-02-12T18:30:08.894Z,6.50
2018-02-12T18:32:42.183Z,4.85
2018-02-12T18:35:09.683Z,6.95
2018-02-12T18:37:38.054Z,5.00
2018-02-12T18:40:06.348Z,4.43
2018-02-12T18:42:33.882Z,5.87
2018-02-12T18:45:01.475Z,4.78
2018-02-12T18:47:29.025Z,6.72
2018-02-12T18:49:56.694Z,8.48
2018-02-12T18:52:24.263Z,5.87
2018-02-12T18:54:51.802Z,6.25
2018-02-12T18:57:19.388Z,8.57
2018-02-12T18:59:46.940Z,9.82
2018-02-12T19:02:14.526Z,7.93
2018-02-12T19:04:42.281Z,8.38
2018-02-12T19:07:09.829Z,7.32
2018-02-12T19:09:37.386Z,9.35
2018-02-12T19:12:04.889Z,12.05
2018-02-12T19:14:32.530Z,10.80
2018-02-12T19:17:00.386Z,6.82
2018-02-12T19:19:27.891Z,7.10
2018-02-12T19:21:55.409Z,11.12
2018-02-12T19:24:22.914Z,11.77
2018-02-12T19:26:51.972Z,9.85
2018-02-12T19:29:19.497Z,7.87
2018-02-12T19:31:47.809Z,10.85
2018-02-12T19:34:15.344Z,7.93
2018-02-12T19:36:43.020Z,8.32
2018-02-12T19:39:10.553Z,12.15
2018-02-12T19:41:39.037Z,6.50
2018-02-12T19:44:06.777Z,8.07
2018-02-12T19:46:34.593Z,8.70
2018-02-12T19:49:02.107Z,10.07
2018-02-12T19:51:29.920Z,9.90
2018-02-12T19:53:57.932Z,13.20
2018-02-12T19:56:26.479Z,8.75
2018-02-12T19:58:54.159Z,9.15
2018-02-12T20:01:22.161Z,8.45
2018-02-12T20:03:49.908Z,6.93
2018-02-12T20:06:18.249Z,10.25
2018-02-12T20:08:45.802Z,10.15
2018-02-12T20:11:13.479Z,11.60
2018-02-12T20:13:41.052Z,10.80
2018-02-12T20:16:08.577Z,7.70
2018-02-12T20:18:36.761Z,8.48
2018-02-12T20:21:04.685Z,12.82
2018-02-12T20:23:33.914Z,9.73
2018-02-12T20:26:02.278Z,7.78
2018-02-12T20:28:29.822Z,11.12
2018-02-12T20:30:57.882Z,9.60
2018-02-12T20:33:26.473Z,9.63
2018-02-12T20:35:54.428Z,11.15
2018-02-12T20:38:22.069Z,16.02
2018-02-12T20:40:50.041Z,13.55
2018-02-12T20:43:18.741Z,13.18
2018-02-12T20:45:47.134Z,15.23
2018-02-12T20:48:14.759Z,9.10
2018-02-12T20:50:43.093Z,11.30
2018-02-12T20:53:10.696Z,14.75
2018-02-12T20:55:38.255Z,7.60
2018-02-12T20:58:05.875Z,10.02
2018-02-12T21:00:33.372Z,13.57
2018-02-12T21:03:00.978Z,10.55
2018-02-12T21:05:28.610Z,11.07
2018-02-12T21:07:56.172Z,9.95
2018-02-12T21:10:23.728Z,10.32
2018-02-12T21:12:51.309Z,15.10
2018-02-12T21:15:18.827Z,11.48
2018-02-12T21:17:47.119Z,12.05
2018-02-12T21:20:14.635Z,10.25
2018-02-12T21:22:42.278Z,9.25
2018-02-12T21:25:09.860Z,12.32
2018-02-12T21:27:37.396Z,21.08
2018-02-12T21:30:04.886Z,9.65
2018-02-12T21:32:32.414Z,9.52
2018-02-12T21:34:59.930Z,15.63
2018-02-12T21:37:28.278Z,12.30
2018-02-12T21:39:55.805Z,9.73
2018-02-12T21:42:23.346Z,16.62
2018-02-12T21:44:50.922Z,14.57
2018-02-12T21:47:18.449Z,12.10
2018-02-12T21:49:46.732Z,19.23
2018-02-12T21:52:15.025Z,13.30
2018-02-12T21:54:42.625Z,12.13
2018-02-12T21:57:10.160Z,23.90
2018-02-12T21:59:37.678Z,15.30
2018-02-12T22:02:05.972Z,13.55
2018-02-12T22:04:33.960Z,18.45
2018-02-12T22:07:01.543Z,16.42
2018-02-12T22:09:29.133Z,15.48
2018-02-12T22:11:56.905Z,12.32
2018-02-12T22:14:24.498Z,14.98
2018-02-12T22:16:52.119Z,14.23
2018-02-12T22:19:19.746Z,14.65
2018-02-12T22:21:47.432Z,16.60
2018-02-12T22:24:15.041Z,16.92
2018-02-12T22:26:43.528Z,14.48
2018-02-12T22:29:11.051Z,13.00
2018-02-12T22:31:38.565Z,17.80
2018-02-12T22:34:06.109Z,14.05
2018-02-12T22:36:33.609Z,16.67
2018-02-12T22:39:01.148Z,17.05
2018-02-12T22:41:28.689Z,20.62
2018-02-12T22:43:56.259Z,20.85
2018-02-12T22:46:23.774Z,14.52
2018-02-12T22:48:51.310Z,18.58
2018-02-12T22:51:18.842Z,17.12
2018-02-12T22:53:46.363Z,19.37
2018-02-12T22:56:14.657Z,16.30
2018-02-12T22:58:42.203Z,19.55
2018-02-12T23:01:10.487Z,22.75
2018-02-12T23:03:38.751Z,19.10
2018-02-12T23:06:07.035Z,21.50
2018-02-12T23:08:35.334Z,22.50
2018-02-12T23:11:02.847Z,22.23
2018-02-12T23:13:30.453Z,22.13
2018-02-12T23:15:57.965Z,23.90
2018-02-12T23:18:26.743Z,23.65
2018-02-12T23:20:54.496Z,21.58
2018-02-12T23:23:22.318Z,23.50
2018-02-12T23:25:50.661Z,23.60
2018-02-12T23:28:18.515Z,24.10
2018-02-12T23:30:46.262Z,21.25
2018-02-12T23:33:13.825Z,25.85
2018-02-12T23:35:41.676Z,35.38
2018-02-12T23:38:09.511Z,24.60
2018-02-12T23:40:38.943Z,24.48
2018-02-12T23:43:06.452Z,29.95
2018-02-12T23:45:34.062Z,23.73
2018-02-12T23:48:02.337Z,31.70
2018-02-12T23:50:30.606Z,25.75
2018-02-12T23:52:58.914Z,25.62
2018-02-12T23:55:26.445Z,22.42
2018-02-12T23:57:54.744Z,22.40
